createdAt,value
2023-03-11T13:06:00.362Z,22.27
2023-03-11T13:08:37.791Z,20.20
2023-03-11T13:11:42.886Z,19.27
2023-03-11T13:14:34.615Z,18.83
2023-03-11T13:17:27.571Z,17.85
2023-03-11T13:20:01.203Z,17.67
2023-03-11T13:23:13.970Z,16.55
2023-03-11T13:26:14.081Z,16.27
2023-03-11T13:28:59.150Z,15.88
2023-03-11T13:31:50.288Z,16.83
2023-03-11T13:34:36.724Z,15.82
2023-03-11T13:37:22.871Z,14.20
2023-03-11T13:40:14.285Z,13.40
2023-03-11T13:42:51.912Z,15.15
2023-03-11T13:45:30.245Z,12.80
2023-03-11T13:48:08.293Z,12.57
2023-03-11T13:50:48.031Z,11.63
2023-03-11T13:53:26.942Z,11.77
2023-03-11T13:56:00.502Z,10.25
2023-03-11T13:58:35.224Z,9.93
2023-03-11T14:01:17.683Z,9.60
2023-03-11T14:03:52.004Z,9.05
2023-03-11T14:06:25.462Z,9.43
2023-03-11T14:08:59.615Z,9.88
2023-03-11T14:11:32.947Z,8.43
2023-03-11T14:14:35.039Z,9.18
2023-03-11T14:17:13.719Z,9.20
2023-03-11T14:20:12.096Z,9.90
2023-03-11T14:22:47.853Z,7.55
2023-03-11T14:25:23.662Z,8.63
2023-03-11T14:27:58.986Z,8.07
2023-03-11T14:30:35.805Z,7.22
2023-03-11T14:33:23.090Z,7.53
2023-03-11T14:35:58.100Z,7.05
2023-03-11T14:38:33.448Z,7.82
2023-03-11T14:41:08.055Z,6.75
2023-03-11T14:43:45.645Z,6.43
2023-03-11T14:46:25.175Z,6.15
2023-03-11T14:48:59.481Z,5.90
2023-03-11T14:51:35.475Z,5.47
2023-03-11T14:54:17.680Z,5.47
2023-03-11T14:56:57.126Z,5.47
2023-03-11T14:59:33.344Z,5.22
2023-03-11T15:02:27.809Z,4.50
2023-03-11T15:07:37.485Z,5.25
2023-03-11T15:12:46.161Z,5.40
2023-03-11T15:15:25.005Z,4.72
2023-03-11T15:18:01.413Z,5.18
2023-03-11T15:20:36.850Z,114.25
2023-03-11T15:23:22.332Z,301.27
2023-03-11T15:25:55.733Z,351.35
2023-03-11T15:28:31.702Z,358.98
2023-03-11T15:31:33.080Z,188.38
2023-03-11T15:34:25.476Z,161.35
2023-03-11T15:37:06.409Z,132.93
2023-03-11T15:39:46.482Z,117.28
2023-03-11T15:42:24.399Z,108.28
2023-03-11T15:45:14.328Z,99.95
2023-03-11T15:47:49.454Z,84.75
2023-03-11T15:50:40.198Z,75.35
2023-03-11T15:53:16.730Z,64.97
2023-03-11T15:55:50.338Z,69.22
2023-03-11T15:58:23.876Z,63.30
2023-03-11T16:00:58.499Z,58.25
2023-03-11T16:03:31.865Z,53.53
2023-03-11T16:06:06.988Z,51.25
2023-03-11T16:08:40.506Z,49.22
2023-03-11T16:11:14.514Z,43.83
2023-03-11T16:13:47.899Z,43.10
2023-03-11T16:16:21.318Z,42.03
2023-03-11T16:18:54.688Z,41.13
2023-03-11T16:21:35.819Z,35.38
2023-03-11T16:24:13.374Z,34.05
2023-03-11T16:26:46.778Z,32.10
2023-03-11T16:29:23.303Z,30.13
2023-03-11T16:31:56.793Z,31.00
2023-03-11T16:34:30.213Z,27.55
2023-03-11T16:37:05.397Z,29.63
2023-03-11T16:39:38.760Z,29.25
2023-03-11T16:42:12.161Z,26.95
2023-03-11T16:44:46.070Z,25.25
2023-03-11T16:47:19.787Z,24.67
2023-03-11T16:49:53.611Z,22.85
2023-03-11T16:52:28.423Z,22.30
2023-03-11T16:55:01.917Z,21.35
2023-03-11T16:57:35.274Z,22.52
2023-03-11T17:00:11.091Z,19.60
2023-03-11T17:02:44.819Z,18.60
2023-03-11T17:05:18.723Z,20.00
2023-03-11T17:08:00.094Z,18.55
2023-03-11T17:10:38.759Z,17.67
2023-03-11T17:13:13.626Z,18.58
2023-03-11T17:15:47.047Z,16.35
2023-03-11T17:18:20.405Z,14.95
2023-03-11T17:20:53.756Z,15.70
2023-03-11T17:23:28.573Z,15.00
2023-03-11T17:26:02.114Z,14.95
2023-03-11T17:28:36.136Z,15.80
2023-03-11T17:31:13.018Z,13.43
2023-03-11T17:33:47.421Z,14.23
2023-03-11T17:36:20.814Z,14.65
2023-03-11T17:38:56.060Z,13.68
2023-03-11T17:41:29.619Z,12.63
2023-03-11T17:44:03.047Z,11.88
2023-03-11T17:46:38.813Z,12.02
2023-03-11T17:49:15.227Z,11.55
2023-03-11T17:51:49.371Z,10.85
2023-03-11T17:54:24.479Z,12.57
2023-03-11T17:56:57.839Z,13.02
2023-03-11T17:59:31.222Z,16.23
2023-03-11T18:02:04.721Z,14.82
2023-03-11T18:04:39.134Z,13.45
2023-03-11T18:07:12.543Z,15.60
2023-03-11T18:09:47.569Z,16.88
2023-03-11T18:12:21.602Z,17.75
2023-03-11T18:14:54.980Z,17.23
2023-03-11T18:17:29.472Z,17.00
2023-03-11T18:20:02.888Z,15.50
2023-03-11T18:22:37.273Z,14.25
2023-03-11T18:25:13.930Z,13.82
2023-03-11T18:27:47.328Z,12.82
2023-03-11T18:30:20.988Z,12.52
2023-03-11T18:35:27.836Z,11.02
2023-03-11T18:38:01.206Z,12.32
2023-03-11T18:40:36.059Z,10.48
2023-03-11T18:43:12.066Z,10.15
2023-03-11T18:45:45.420Z,9.73
2023-03-11T18:48:19.025Z,9.35
2023-03-11T18:50:53.323Z,9.40
2023-03-11T18:53:26.799Z,9.95
2023-03-11T18:56:07.085Z,9.25
2023-03-11T18:58:40.480Z,9.02
2023-03-11T19:01:16.047Z,9.43
2023-03-11T19:03:51.513Z,8.13
2023-03-11T19:06:25.889Z,8.35
2023-03-11T19:08:59.396Z,7.82
2023-03-11T19:11:34.179Z,7.35
2023-03-11T19:14:07.583Z,7.95
2023-03-11T19:16:41.104Z,7.82
2023-03-11T19:19:14.477Z,6.93
2023-03-11T19:21:48.127Z,6.40
2023-03-11T19:24:21.513Z,6.65
2023-03-11T19:26:56.225Z,6.60
2023-03-11T19:29:29.534Z,6.43
2023-03-11T19:32:03.656Z,5.93
2023-03-11T19:34:37.295Z,5.70
2023-03-11T19:37:10.620Z,6.13
2023-03-11T19:39:43.999Z,5.93
2023-03-11T19:42:19.724Z,6.10
2023-03-11T19:44:54.389Z,5.57
2023-03-11T19:47:28.031Z,5.82
2023-03-11T19:52:36.140Z,5.63
2023-03-11T19:55:10.009Z,5.82
2023-03-11T19:57:44.753Z,5.97
2023-03-11T20:00:19.781Z,5.75
2023-03-11T20:02:56.606Z,5.85
2023-03-11T20:05:30.035Z,5.80
2023-03-11T20:08:03.860Z,4.70
2023-03-11T20:13:14.789Z,4.63
2023-03-11T20:15:48.365Z,4.65
2023-03-11T20:18:21.747Z,4.75
2023-03-11T20:20:55.131Z,4.38
2023-03-11T20:23:28.496Z,4.50
2023-03-11T20:26:05.176Z,3.88
2023-03-11T20:28:40.071Z,4.47
2023-03-11T20:31:16.061Z,4.32
2023-03-11T20:33:50.944Z,3.67
2023-03-11T20:36:26.830Z,3.47
2023-03-11T20:39:00.805Z,4.15
2023-03-11T20:41:37.455Z,3.92
2023-03-11T20:44:14.067Z,4.20
2023-03-11T20:46:49.480Z,4.07
2023-03-11T20:49:22.934Z,4.20
2023-03-11T20:51:56.485Z,3.72
2023-03-11T20:54:29.963Z,3.22
2023-03-11T20:57:03.351Z,3.80
2023-03-11T20:59:38.070Z,2.97
2023-03-11T21:02:12.899Z,3.88
2023-03-11T21:04:47.912Z,3.80
2023-03-11T21:07:21.231Z,3.50
2023-03-11T21:09:55.115Z,3.30
2023-03-11T21:12:31.141Z,3.50
2023-03-11T21:15:09.158Z,3.53
2023-03-11T21:17:42.494Z,3.50
2023-03-11T21:20:16.758Z,4.50
2023-03-11T21:22:50.104Z,3.15
2023-03-11T21:25:23.631Z,3.50
2023-03-11T21:27:57.037Z,3.83
2023-03-11T21:30:32.025Z,3.63
2023-03-11T21:33:05.654Z,3.92
2023-03-11T21:35:39.238Z,2.78
2023-03-11T21:38:12.680Z,2.90
2023-03-11T21:40:46.315Z,3.42
2023-03-11T21:43:20.605Z,3.13
2023-03-11T21:45:55.401Z,3.17
2023-03-11T21:48:28.986Z,3.72
2023-03-11T21:51:02.673Z,3.03
2023-03-11T21:53:36.916Z,2.78
2023-03-11T21:56:11.007Z,2.95
2023-03-11T21:58:44.704Z,2.60
2023-03-11T22:06:26.028Z,2.65
2023-03-11T22:08:59.399Z,3.08
2023-03-11T22:11:32.920Z,2.63
2023-03-11T22:14:06.506Z,2.22
2023-03-11T22:16:41.350Z,2.40
2023-03-11T22:19:14.992Z,2.45
2023-03-11T22:21:49.063Z,2.30
2023-03-11T22:24:22.371Z,2.63
2023-03-11T22:26:55.693Z,2.20
2023-03-11T22:29:28.969Z,2.45
2023-03-11T22:32:03.741Z,2.47
2023-03-11T22:34:37.144Z,2.42
2023-03-11T22:37:10.525Z,2.13
2023-03-11T22:39:43.891Z,2.00
2023-03-11T22:42:17.261Z,2.40
2023-03-11T22:44:50.684Z,2.53
2023-03-11T22:47:25.506Z,2.03
2023-03-11T22:49:58.827Z,2.20
2023-03-11T22:52:32.140Z,2.40
2023-03-11T22:55:05.995Z,2.30
2023-03-11T22:57:39.629Z,2.03
2023-03-11T23:00:17.257Z,2.15
2023-03-11T23:02:55.494Z,2.00
2023-03-11T23:05:28.828Z,2.03
2023-03-11T23:08:02.153Z,1.95
2023-03-11T23:10:35.483Z,2.28
2023-03-11T23:13:08.962Z,2.58
2023-03-11T23:15:43.140Z,2.15
2023-03-11T23:18:18.034Z,2.20
2023-03-11T23:20:51.312Z,2.58
2023-03-11T23:23:24.644Z,2.08
2023-03-11T23:25:58.155Z,2.15
2023-03-11T23:28:31.783Z,2.30
2023-03-11T23:31:05.551Z,2.50
2023-03-11T23:36:16.074Z,2.30
2023-03-11T23:38:50.845Z,1.95
2023-03-11T23:41:24.638Z,2.55
2023-03-11T23:46:31.097Z,2.00
2023-03-11T23:49:05.758Z,3.00
2023-03-11T23:51:39.029Z,2.42
2023-03-11T23:54:12.632Z,2.33
2023-03-11T23:56:46.199Z,1.75
2023-03-11T23:59:19.548Z,2.30
